createdAt,value
2023-02-26T00:02:05.127Z,1.90
2023-02-26T00:04:31.499Z,1.80
2023-02-26T00:06:58.122Z,1.60
2023-02-26T00:09:26.230Z,1.60
2023-02-26T00:11:53.511Z,1.50
2023-02-26T00:14:20.072Z,1.67
2023-02-26T00:17:22.726Z,1.90
2023-02-26T00:19:49.591Z,1.80
2023-02-26T00:22:16.217Z,1.75
2023-02-26T00:24:42.590Z,1.83
2023-02-26T00:27:10.675Z,1.60
2023-02-26T00:29:37.601Z,1.70
2023-02-26T00:32:04.782Z,1.90
2023-02-26T00:34:31.648Z,1.98
2023-02-26T00:37:28.949Z,1.40
2023-02-26T00:39:58.223Z,1.90
2023-02-26T00:42:24.896Z,2.00
2023-02-26T00:44:51.588Z,1.90
2023-02-26T00:47:28.673Z,1.60
2023-02-26T00:50:05.259Z,1.88
2023-02-26T00:52:43.702Z,1.83
2023-02-26T00:55:10.145Z,1.65
2023-02-26T00:57:36.562Z,1.92
2023-02-26T01:00:06.839Z,1.90
2023-02-26T01:02:34.825Z,2.10
2023-02-26T01:05:01.298Z,1.70
2023-02-26T01:07:28.405Z,1.65
2023-02-26T01:09:55.122Z,1.50
2023-02-26T01:12:21.598Z,1.92
2023-02-26T01:14:48.341Z,2.03
2023-02-26T01:17:36.268Z,1.90
2023-02-26T01:20:06.638Z,1.77
2023-02-26T01:23:12.803Z,1.70
2023-02-26T01:25:41.788Z,1.65
2023-02-26T01:28:08.587Z,1.40
2023-02-26T01:30:35.356Z,1.60
2023-02-26T01:33:09.763Z,1.60
2023-02-26T01:35:41.895Z,1.80
2023-02-26T01:38:32.471Z,1.50
2023-02-26T01:41:24.761Z,1.75
2023-02-26T01:43:59.090Z,1.80
2023-02-26T01:46:34.954Z,1.35
2023-02-26T01:49:02.443Z,1.45
2023-02-26T01:52:01.032Z,1.58
2023-02-26T01:54:36.106Z,1.77
2023-02-26T01:57:06.275Z,1.30
2023-02-26T01:59:34.156Z,1.63
2023-02-26T02:02:03.240Z,1.75
2023-02-26T02:04:30.190Z,1.77
2023-02-26T02:06:56.562Z,1.90
2023-02-26T02:09:22.998Z,1.75
2023-02-26T02:12:17.010Z,1.90
2023-02-26T02:14:58.201Z,1.65
2023-02-26T02:17:50.915Z,2.30
2023-02-26T02:20:27.575Z,1.83
2023-02-26T02:23:10.341Z,1.98
2023-02-26T02:26:01.351Z,1.90
2023-02-26T02:28:46.421Z,2.10
2023-02-26T02:31:18.682Z,2.25
2023-02-26T02:34:04.593Z,2.20
2023-02-26T02:36:39.140Z,2.00
2023-02-26T02:39:10.112Z,2.05
2023-02-26T02:41:40.857Z,1.92
2023-02-26T02:44:11.925Z,2.42
2023-02-26T02:46:40.738Z,2.22
2023-02-26T02:49:15.029Z,1.92
2023-02-26T02:51:46.493Z,2.20
2023-02-26T02:54:20.626Z,2.28
2023-02-26T02:56:51.573Z,2.42
2023-02-26T02:59:25.613Z,2.60
2023-02-26T03:02:04.137Z,2.55
2023-02-26T03:04:30.571Z,2.35
2023-02-26T03:06:56.961Z,2.55
2023-02-26T03:09:23.372Z,2.10
2023-02-26T03:11:49.782Z,2.30
2023-02-26T03:14:16.213Z,2.28
2023-02-26T03:17:03.252Z,2.50
2023-02-26T03:19:49.840Z,2.53
2023-02-26T03:22:46.026Z,2.33
2023-02-26T03:25:24.802Z,2.95
2023-02-26T03:27:57.775Z,2.78
2023-02-26T03:30:39.410Z,2.37
2023-02-26T03:33:10.718Z,2.30
2023-02-26T03:36:01.335Z,2.67
2023-02-26T03:38:38.097Z,2.20
2023-02-26T03:41:16.130Z,3.17
2023-02-26T03:43:47.525Z,2.70
2023-02-26T03:46:18.334Z,2.78
2023-02-26T03:48:46.558Z,2.63
2023-02-26T03:51:14.642Z,2.80
2023-02-26T03:53:52.124Z,2.42
2023-02-26T03:56:36.239Z,3.05
2023-02-26T04:01:56.106Z,3.00
2023-02-26T04:04:26.969Z,2.78
2023-02-26T04:06:56.549Z,2.95
2023-02-26T04:09:23.270Z,2.72
2023-02-26T04:11:51.416Z,2.60
2023-02-26T04:14:17.752Z,3.00
2023-02-26T04:16:44.895Z,2.97
2023-02-26T04:19:11.460Z,2.78
2023-02-26T04:21:38.302Z,2.88
2023-02-26T04:24:04.732Z,2.78
2023-02-26T04:26:31.132Z,3.17
2023-02-26T04:28:57.458Z,2.42
2023-02-26T04:31:23.991Z,2.42
2023-02-26T04:33:50.385Z,2.60
2023-02-26T04:36:16.786Z,2.28
2023-02-26T04:38:43.133Z,2.42
2023-02-26T04:41:09.443Z,2.53
2023-02-26T04:43:37.527Z,2.38
2023-02-26T04:46:04.273Z,2.50
2023-02-26T04:48:30.676Z,2.40
2023-02-26T04:50:57.010Z,2.20
2023-02-26T04:53:23.365Z,2.40
2023-02-26T04:55:52.225Z,2.10
2023-02-26T04:58:19.032Z,2.10
2023-02-26T05:00:51.689Z,2.45
2023-02-26T05:03:18.277Z,1.75
2023-02-26T05:05:44.749Z,2.20
2023-02-26T05:08:11.163Z,2.20
2023-02-26T05:10:37.496Z,2.33
2023-02-26T05:13:03.835Z,2.42
2023-02-26T05:15:30.341Z,2.33
2023-02-26T05:17:56.830Z,2.20
2023-02-26T05:20:23.163Z,2.17
2023-02-26T05:22:49.623Z,2.05
2023-02-26T05:25:16.085Z,1.85
2023-02-26T05:27:42.994Z,1.92
2023-02-26T05:30:12.164Z,1.83
2023-02-26T05:32:38.657Z,2.20
2023-02-26T05:35:05.413Z,1.90
2023-02-26T05:37:31.849Z,1.88
2023-02-26T05:39:58.300Z,2.13
2023-02-26T05:42:24.996Z,2.25
2023-02-26T05:44:51.623Z,1.95
2023-02-26T05:47:18.050Z,2.15
2023-02-26T05:49:44.409Z,2.22
2023-02-26T05:52:10.776Z,1.80
2023-02-26T05:54:37.113Z,1.80
2023-02-26T05:57:03.606Z,1.98
2023-02-26T05:59:29.946Z,2.00
2023-02-26T06:01:56.377Z,1.55
2023-02-26T06:04:22.774Z,2.15
2023-02-26T06:06:49.100Z,1.90
2023-02-26T06:09:15.477Z,2.00
2023-02-26T06:11:42.087Z,1.50
2023-02-26T06:14:08.415Z,1.98
2023-02-26T06:16:35.802Z,1.80
2023-02-26T06:19:02.740Z,1.70
2023-02-26T06:21:29.441Z,1.98
2023-02-26T06:23:55.834Z,2.08
2023-02-26T06:26:23.880Z,1.95
2023-02-26T06:28:50.367Z,2.10
2023-02-26T06:31:16.786Z,1.85
2023-02-26T06:33:43.205Z,1.77
2023-02-26T06:36:09.734Z,1.95
2023-02-26T06:38:36.114Z,2.20
2023-02-26T06:41:02.447Z,1.73
2023-02-26T06:43:29.015Z,2.22
2023-02-26T06:45:58.716Z,1.63
2023-02-26T06:48:25.578Z,1.67
2023-02-26T06:50:52.146Z,2.00
2023-02-26T06:53:18.541Z,1.80
2023-02-26T06:55:46.152Z,2.53
2023-02-26T06:58:13.202Z,1.95
2023-02-26T07:00:40.356Z,2.00
2023-02-26T07:03:06.958Z,2.22
2023-02-26T07:05:33.594Z,2.20
2023-02-26T07:07:59.989Z,1.98
2023-02-26T07:10:27.405Z,2.20
2023-02-26T07:12:53.749Z,2.10
2023-02-26T07:15:20.081Z,2.20
2023-02-26T07:17:46.453Z,1.90
2023-02-26T07:20:13.930Z,1.90
2023-02-26T07:22:40.341Z,1.88
2023-02-26T07:25:07.292Z,2.25
2023-02-26T07:27:33.832Z,2.13
2023-02-26T07:30:00.708Z,1.90
2023-02-26T07:32:27.764Z,2.05
2023-02-26T07:34:54.301Z,2.13
2023-02-26T07:37:20.787Z,2.03
2023-02-26T07:39:47.340Z,2.00
2023-02-26T07:42:13.932Z,1.85
2023-02-26T07:44:40.310Z,2.00
2023-02-26T07:47:06.942Z,1.85
2023-02-26T07:49:34.032Z,1.92
2023-02-26T07:52:00.957Z,2.65
2023-02-26T07:54:28.029Z,2.35
2023-02-26T07:56:54.357Z,2.30
2023-02-26T07:59:21.022Z,2.33
2023-02-26T08:01:47.492Z,2.10
2023-02-26T08:04:14.106Z,1.70
2023-02-26T08:06:40.602Z,1.90
2023-02-26T08:09:07.236Z,2.10
2023-02-26T08:11:36.528Z,1.88
2023-02-26T08:14:03.157Z,1.92
2023-02-26T08:16:29.595Z,1.75
2023-02-26T08:18:55.924Z,1.77
2023-02-26T08:21:23.448Z,1.60
2023-02-26T08:23:49.766Z,1.67
2023-02-26T08:26:16.113Z,2.10
2023-02-26T08:28:42.473Z,1.95
2023-02-26T08:31:09.166Z,1.90
2023-02-26T08:33:35.820Z,1.73
2023-02-26T08:36:02.204Z,1.75
2023-02-26T08:38:29.852Z,1.52
2023-02-26T08:40:57.124Z,1.92
2023-02-26T08:43:25.255Z,1.73
2023-02-26T08:45:53.274Z,1.83
2023-02-26T08:48:20.098Z,1.70
2023-02-26T08:50:46.644Z,1.92
2023-02-26T08:53:15.241Z,1.58
2023-02-26T08:55:41.994Z,1.38
2023-02-26T08:58:08.539Z,1.80
2023-02-26T09:00:34.929Z,1.95
2023-02-26T09:03:01.439Z,1.65
2023-02-26T09:05:27.968Z,1.65
2023-02-26T09:07:54.384Z,1.90
2023-02-26T09:10:20.845Z,1.48
2023-02-26T09:12:47.539Z,1.60
2023-02-26T09:15:14.562Z,1.42
2023-02-26T09:17:41.622Z,1.70
2023-02-26T09:20:09.151Z,1.60
2023-02-26T09:22:36.574Z,1.67
2023-02-26T09:25:03.784Z,1.65
2023-02-26T09:27:33.166Z,1.42
2023-02-26T09:29:59.485Z,1.50
2023-02-26T09:32:26.957Z,1.70
2023-02-26T09:34:53.620Z,1.60
2023-02-26T09:37:21.342Z,1.58
2023-02-26T09:39:47.690Z,2.08
2023-02-26T09:42:32.674Z,1.60
2023-02-26T09:45:00.101Z,1.58
2023-02-26T09:47:42.585Z,1.95
2023-02-26T09:50:32.742Z,1.70
2023-02-26T09:53:09.578Z,1.40
2023-02-26T09:55:45.618Z,1.60
2023-02-26T09:58:29.240Z,1.60
2023-02-26T10:01:04.355Z,1.58
2023-02-26T10:04:09.387Z,1.60
2023-02-26T10:06:47.750Z,1.38
2023-02-26T10:09:36.769Z,1.60
2023-02-26T10:12:13.233Z,1.60
2023-02-26T10:15:01.744Z,1.70
2023-02-26T10:17:31.559Z,1.40
2023-02-26T10:20:05.507Z,1.40
2023-02-26T10:25:27.739Z,1.52
2023-02-26T10:28:20.285Z,1.25
2023-02-26T10:30:52.769Z,1.35
2023-02-26T10:33:35.171Z,1.38
2023-02-26T10:36:30.863Z,1.20
2023-02-26T10:39:03.826Z,1.40
2023-02-26T10:41:32.123Z,1.42
2023-02-26T10:44:06.531Z,1.13
2023-02-26T10:46:49.248Z,1.20
2023-02-26T10:49:43.708Z,1.17
2023-02-26T10:52:15.902Z,1.30
2023-02-26T10:54:57.199Z,1.48
2023-02-26T10:57:27.569Z,1.20
2023-02-26T10:59:53.958Z,1.17
2023-02-26T11:02:41.958Z,1.10
2023-02-26T11:05:16.773Z,1.42
2023-02-26T11:07:43.691Z,1.05
2023-02-26T11:10:17.440Z,1.27
2023-02-26T11:12:44.088Z,1.67
2023-02-26T11:15:19.589Z,1.48
2023-02-26T11:17:48.607Z,1.33
2023-02-26T11:20:20.378Z,0.98
2023-02-26T11:22:50.931Z,1.08
2023-02-26T11:25:19.887Z,1.20
2023-02-26T11:27:49.301Z,1.05
2023-02-26T11:30:18.921Z,1.58
2023-02-26T11:32:46.571Z,1.30
2023-02-26T11:35:14.996Z,1.40
2023-02-26T11:37:45.817Z,1.13
2023-02-26T11:40:34.995Z,1.33
2023-02-26T11:43:06.203Z,1.23
2023-02-26T11:45:35.410Z,1.20
2023-02-26T11:48:14.609Z,1.40
2023-02-26T11:50:44.257Z,1.25
2023-02-26T11:53:25.424Z,1.50
2023-02-26T11:55:53.008Z,1.08
2023-02-26T11:58:24.114Z,1.20
2023-02-26T12:00:54.471Z,1.00
2023-02-26T12:03:23.468Z,1.20
2023-02-26T12:05:53.212Z,1.13
2023-02-26T12:08:26.433Z,1.45
2023-02-26T12:11:13.500Z,1.10
2023-02-26T12:13:58.522Z,1.38
2023-02-26T12:16:50.859Z,0.90
2023-02-26T12:19:44.525Z,1.27
2023-02-26T12:22:34.782Z,1.20
2023-02-26T12:25:39.041Z,1.42
2023-02-26T12:28:15.205Z,1.30
2023-02-26T12:31:01.423Z,1.23
2023-02-26T12:33:55.495Z,1.20
2023-02-26T12:37:23.660Z,1.10
2023-02-26T12:40:23.616Z,0.88
2023-02-26T12:43:10.911Z,1.25
2023-02-26T12:46:02.753Z,1.25
2023-02-26T12:48:40.391Z,1.83
2023-02-26T12:51:15.372Z,1.23
2023-02-26T12:54:09.105Z,1.13
2023-02-26T12:56:56.806Z,1.40
2023-02-26T12:59:49.589Z,1.40
2023-02-26T13:02:59.112Z,1.00
2023-02-26T13:06:02.444Z,1.00
2023-02-26T13:08:36.056Z,1.20
2023-02-26T13:11:33.181Z,1.17
2023-02-26T13:14:05.925Z,1.20
2023-02-26T13:16:44.776Z,0.93
2023-02-26T13:19:31.748Z,1.40
2023-02-26T13:22:07.145Z,1.08
2023-02-26T13:24:40.185Z,1.30
2023-02-26T13:27:08.249Z,1.20
2023-02-26T13:29:47.441Z,1.10
2023-02-26T13:32:18.130Z,1.10
2023-02-26T13:34:58.781Z,0.95
2023-02-26T13:37:31.922Z,0.95
2023-02-26T13:40:18.520Z,1.33
2023-02-26T13:42:59.711Z,1.00
2023-02-26T13:45:45.611Z,1.30
2023-02-26T13:48:20.702Z,1.13
2023-02-26T13:51:03.694Z,1.17
2023-02-26T13:53:33.585Z,1.35
2023-02-26T13:56:31.972Z,1.40
2023-02-26T13:59:31.840Z,1.05
2023-02-26T14:02:02.289Z,1.30
2023-02-26T14:04:31.208Z,1.23
2023-02-26T14:07:16.072Z,1.25
2023-02-26T14:10:00.439Z,1.05
2023-02-26T14:12:29.437Z,1.33
2023-02-26T14:14:59.921Z,1.20
2023-02-26T14:17:40.128Z,1.13
2023-02-26T14:20:09.414Z,1.23
2023-02-26T14:22:41.676Z,1.25
2023-02-26T14:25:16.529Z,1.35
2023-02-26T14:27:44.522Z,1.33
2023-02-26T14:30:10.728Z,1.10
2023-02-26T14:33:06.977Z,1.00
2023-02-26T14:35:36.610Z,0.90
2023-02-26T14:38:06.197Z,1.00
2023-02-26T14:40:38.503Z,1.02
2023-02-26T14:43:05.975Z,1.05
2023-02-26T14:45:40.549Z,1.00
2023-02-26T14:48:13.188Z,0.90
2023-02-26T14:51:17.843Z,1.00
2023-02-26T14:53:53.522Z,1.00
2023-02-26T14:56:25.465Z,1.40
2023-02-26T14:59:11.869Z,0.90
2023-02-26T15:01:52.951Z,0.80
2023-02-26T15:04:37.612Z,1.42
2023-02-26T15:07:21.051Z,0.95
2023-02-26T15:10:00.911Z,1.20
2023-02-26T15:12:55.606Z,0.80
2023-02-26T15:15:33.318Z,0.88
2023-02-26T15:18:37.135Z,0.80
2023-02-26T15:21:20.729Z,0.82
2023-02-26T15:23:53.643Z,0.90
2023-02-26T15:26:24.553Z,1.00
2023-02-26T15:28:51.944Z,1.00
2023-02-26T15:31:25.785Z,0.98
2023-02-26T15:33:56.378Z,1.30
2023-02-26T15:36:24.332Z,1.00
2023-02-26T15:38:57.437Z,1.23
2023-02-26T15:41:25.694Z,1.00
2023-02-26T15:44:02.207Z,1.20
2023-02-26T15:46:36.035Z,1.00
2023-02-26T15:49:24.227Z,0.95
2023-02-26T15:51:52.180Z,0.95
2023-02-26T15:54:20.702Z,1.02
2023-02-26T15:56:47.930Z,1.02
2023-02-26T15:59:19.042Z,0.90
2023-02-26T16:01:45.704Z,0.98
2023-02-26T16:04:19.208Z,1.17
2023-02-26T16:06:53.026Z,0.90
2023-02-26T16:09:25.393Z,1.17
2023-02-26T16:11:53.176Z,1.10
2023-02-26T16:14:22.894Z,1.30
2023-02-26T16:16:51.892Z,1.00
2023-02-26T16:19:33.724Z,1.23
2023-02-26T16:22:03.931Z,0.80
2023-02-26T16:24:31.129Z,1.10
2023-02-26T16:27:01.817Z,1.08
2023-02-26T16:29:30.769Z,1.35
2023-02-26T16:31:59.090Z,1.08
2023-02-26T16:34:49.135Z,1.10
2023-02-26T16:37:24.576Z,1.20
2023-02-26T16:40:04.877Z,1.35
2023-02-26T16:43:05.481Z,1.60
2023-02-26T16:45:37.488Z,1.27
2023-02-26T16:48:07.859Z,1.10
2023-02-26T16:50:35.573Z,1.17
2023-02-26T16:53:07.932Z,1.38
2023-02-26T16:55:37.202Z,1.30
2023-02-26T16:58:07.407Z,0.80
2023-02-26T17:00:34.348Z,1.20
2023-02-26T17:03:12.045Z,1.60
2023-02-26T17:05:42.128Z,1.00
2023-02-26T17:08:14.175Z,1.00
2023-02-26T17:10:55.342Z,1.30
2023-02-26T17:13:27.828Z,1.10
2023-02-26T17:15:59.163Z,1.10
2023-02-26T17:18:25.645Z,1.40
2023-02-26T17:20:52.210Z,1.23
2023-02-26T17:23:19.252Z,1.13
2023-02-26T17:25:47.700Z,1.23
2023-02-26T17:28:26.239Z,1.30
2023-02-26T17:30:53.529Z,1.60
2023-02-26T17:33:20.072Z,1.40
2023-02-26T17:35:46.821Z,1.30
2023-02-26T17:38:15.355Z,1.38
2023-02-26T17:40:44.003Z,1.38
2023-02-26T17:43:10.666Z,1.40
2023-02-26T17:45:39.977Z,1.77
2023-02-26T17:48:07.368Z,1.30
2023-02-26T17:51:05.997Z,1.20
2023-02-26T17:53:40.597Z,1.10
2023-02-26T17:56:22.498Z,1.13
2023-02-26T17:58:49.346Z,1.20
2023-02-26T18:01:16.391Z,1.30
2023-02-26T18:03:43.303Z,1.30
2023-02-26T18:06:13.353Z,1.30
2023-02-26T18:08:40.677Z,1.13
2023-02-26T18:11:07.594Z,1.13
2023-02-26T18:13:33.921Z,1.13
2023-02-26T18:16:02.731Z,1.30
2023-02-26T18:18:29.714Z,1.10
2023-02-26T18:20:56.112Z,1.48
2023-02-26T18:23:22.528Z,1.40
2023-02-26T18:25:50.981Z,1.38
2023-02-26T18:28:22.187Z,1.25
2023-02-26T18:30:49.354Z,1.17
2023-02-26T18:33:18.956Z,1.13
2023-02-26T18:35:48.109Z,1.30
2023-02-26T18:38:19.456Z,1.40
2023-02-26T18:40:46.638Z,1.33
2023-02-26T18:43:13.601Z,1.55
2023-02-26T18:45:43.612Z,1.67
2023-02-26T18:48:12.507Z,1.20
2023-02-26T18:50:39.098Z,1.50
2023-02-26T18:53:05.491Z,1.38
2023-02-26T18:55:31.892Z,1.30
2023-02-26T18:57:58.217Z,1.23
2023-02-26T19:00:25.029Z,1.38
2023-02-26T19:02:51.566Z,1.60
2023-02-26T19:05:22.981Z,1.40
2023-02-26T19:07:52.682Z,1.60
2023-02-26T19:10:19.324Z,1.23
2023-02-26T19:12:45.852Z,1.20
2023-02-26T19:15:13.138Z,1.38
2023-02-26T19:17:40.642Z,1.42
2023-02-26T19:20:07.843Z,1.13
2023-02-26T19:22:34.306Z,1.35
2023-02-26T19:25:00.672Z,1.38
2023-02-26T19:27:27.049Z,1.10
2023-02-26T19:29:53.377Z,1.38
2023-02-26T19:32:19.927Z,1.20
2023-02-26T19:34:46.453Z,1.25
2023-02-26T19:37:12.900Z,1.20
2023-02-26T19:39:39.369Z,1.20
2023-02-26T19:42:05.769Z,1.15
2023-02-26T19:44:32.547Z,1.17
2023-02-26T19:46:59.452Z,1.30
2023-02-26T19:49:25.981Z,1.45
2023-02-26T19:51:54.424Z,1.30
2023-02-26T19:54:20.824Z,1.40
2023-02-26T19:56:47.387Z,1.50
2023-02-26T19:59:13.780Z,1.60
2023-02-26T20:01:41.334Z,1.50
2023-02-26T20:04:08.030Z,1.25
2023-02-26T20:06:34.465Z,1.63
2023-02-26T20:09:00.901Z,1.38
2023-02-26T20:11:27.537Z,1.45
2023-02-26T20:13:54.040Z,1.50
2023-02-26T20:16:20.665Z,1.73
2023-02-26T20:18:47.037Z,1.50
2023-02-26T20:21:13.466Z,1.05
2023-02-26T20:23:40.109Z,1.40
2023-02-26T20:26:12.700Z,1.23
2023-02-26T20:28:39.974Z,1.05
2023-02-26T20:31:07.133Z,1.30
2023-02-26T20:33:33.964Z,1.45
2023-02-26T20:36:00.473Z,1.25
2023-02-26T20:38:28.069Z,1.35
2023-02-26T20:40:54.817Z,1.10
2023-02-26T20:43:21.225Z,1.30
2023-02-26T20:45:48.724Z,1.58
2023-02-26T20:48:15.154Z,1.75
2023-02-26T20:50:41.466Z,1.27
2023-02-26T20:53:08.658Z,1.30
2023-02-26T20:55:35.102Z,1.70
2023-02-26T20:58:03.479Z,1.50
2023-02-26T21:00:30.154Z,1.40
2023-02-26T21:02:56.599Z,1.60
2023-02-26T21:05:23.119Z,1.63
2023-02-26T21:07:50.949Z,1.40
2023-02-26T21:10:18.225Z,1.70
2023-02-26T21:12:44.820Z,1.60
2023-02-26T21:15:11.843Z,1.08
2023-02-26T21:17:39.578Z,1.40
2023-02-26T21:20:07.022Z,1.38
2023-02-26T21:22:35.274Z,1.45
2023-02-26T21:25:02.422Z,1.33
2023-02-26T21:27:28.792Z,1.52
2023-02-26T21:29:55.172Z,1.30
2023-02-26T21:32:21.609Z,1.38
2023-02-26T21:34:48.514Z,1.70
2023-02-26T21:37:14.887Z,1.48
2023-02-26T21:39:41.312Z,1.30
2023-02-26T21:42:09.837Z,1.30
2023-02-26T21:44:36.633Z,1.33
2023-02-26T21:47:03.861Z,1.20
2023-02-26T21:49:31.711Z,1.40
2023-02-26T21:52:02.813Z,1.20
2023-02-26T21:54:29.847Z,1.20
2023-02-26T21:56:56.736Z,1.40
2023-02-26T21:59:23.525Z,1.40
2023-02-26T22:01:56.320Z,1.35
2023-02-26T22:04:22.692Z,1.80
2023-02-26T22:06:49.073Z,1.48
2023-02-26T22:09:17.029Z,1.25
2023-02-26T22:11:43.349Z,1.20
2023-02-26T22:14:09.785Z,1.35
2023-02-26T22:16:36.215Z,1.30
2023-02-26T22:19:02.608Z,1.50
2023-02-26T22:21:29.093Z,1.25
2023-02-26T22:23:55.571Z,1.30
2023-02-26T22:26:22.025Z,1.30
2023-02-26T22:28:48.466Z,1.30
2023-02-26T22:31:14.942Z,1.15
2023-02-26T22:33:41.398Z,1.50
2023-02-26T22:36:07.801Z,1.20
2023-02-26T22:38:34.125Z,1.23
2023-02-26T22:41:00.487Z,1.20
2023-02-26T22:43:26.836Z,1.30
2023-02-26T22:45:53.291Z,1.10
2023-02-26T22:48:20.764Z,1.42
2023-02-26T22:50:48.682Z,1.52
2023-02-26T22:53:14.991Z,1.77
2023-02-26T22:55:41.473Z,1.33
2023-02-26T22:58:07.911Z,1.23
2023-02-26T23:00:34.331Z,1.40
2023-02-26T23:03:00.762Z,1.20
2023-02-26T23:05:29.456Z,1.40
2023-02-26T23:07:55.851Z,1.20
2023-02-26T23:10:22.356Z,1.23
2023-02-26T23:12:49.054Z,1.58
2023-02-26T23:15:15.796Z,1.60
2023-02-26T23:17:42.342Z,1.05
2023-02-26T23:20:17.409Z,1.17
2023-02-26T23:22:44.006Z,1.33
2023-02-26T23:25:12.061Z,1.40
2023-02-26T23:27:38.656Z,1.38
2023-02-26T23:30:05.565Z,1.40
2023-02-26T23:32:32.108Z,1.55
2023-02-26T23:34:58.546Z,1.52
2023-02-26T23:37:25.024Z,1.10
2023-02-26T23:39:51.455Z,1.27
2023-02-26T23:42:18.007Z,1.17
2023-02-26T23:44:44.442Z,1.20
2023-02-26T23:47:10.775Z,1.60
2023-02-26T23:49:37.143Z,1.30
2023-02-26T23:52:03.916Z,1.45
2023-02-26T23:54:30.487Z,1.70
2023-02-26T23:56:56.945Z,1.38
2023-02-26T23:59:23.333Z,1.20
